Time;durP1;ratioP1;P1;durP2;ratioP2;P2;SDS_P1;SDS_P2;PMS_P1;PMS_P2;Temp;Humidity;BMP_temperature;BMP_pressure;BME280_temperature;BME280_humidity;BME280_pressure;Samples;Min_cycle;Max_cycle;Signal;HPM_P1;HPM_P2
2021/03/25 00:01:56;;;;;;;11.48;8.10;;;;;;;5.78;59.17;97136.59;4917464;29;20423;-82
2021/03/25 00:04:24;;;;;;;10.52;7.32;;;;;;;5.76;58.65;97130.75;4917310;29;20055;-82
2021/03/25 00:06:54;;;;;;;11.68;8.32;;;;;;;5.74;58.92;97129.25;4917082;29;20052;-82
2021/03/25 00:09:24;;;;;;;8.85;6.90;;;;;;;5.71;58.78;97126.97;4917480;29;20052;-82
2021/03/25 00:11:50;;;;;;;14.57;8.57;;;;;;;5.67;58.69;97126.41;4917150;29;20114;-82
2021/03/25 00:14:18;;;;;;;11.60;6.72;;;;;;;5.63;58.88;97125.03;4916797;29;20059;-82
2021/03/25 00:16:45;;;;;;;11.98;7.35;;;;;;;5.58;59.01;97117.69;4917014;29;20058;-82
2021/03/25 00:19:13;;;;;;;10.52;7.63;;;;;;;5.52;59.05;97120.03;4916989;29;20056;-82
2021/03/25 00:21:40;;;;;;;11.40;7.63;;;;;;;5.51;59.35;97116.63;4916879;29;20055;-82
2021/03/25 00:24:11;;;;;;;11.90;7.30;;;;;;;5.49;59.31;97115.13;4916885;29;20509;-82
2021/03/25 00:26:38;;;;;;;11.63;7.50;;;;;;;5.46;59.32;97113.59;4917253;29;20076;-82
2021/03/25 00:29:06;;;;;;;9.70;7.25;;;;;;;5.42;59.81;97103.66;4916926;29;20102;-81
2021/03/25 00:31:33;;;;;;;10.88;7.88;;;;;;;5.40;59.42;97101.25;4917026;29;20138;-82
2021/03/25 00:34:00;;;;;;;10.27;7.65;;;;;;;5.36;59.66;97103.28;4916903;29;20495;-82
2021/03/25 00:36:28;;;;;;;9.55;7.00;;;;;;;5.34;59.72;97099.19;4916695;29;20117;-82
2021/03/25 00:38:58;;;;;;;10.27;7.47;;;;;;;5.32;59.85;97094.16;4916754;29;20052;-82
2021/03/25 00:41:25;;;;;;;10.95;7.63;;;;;;;5.29;59.66;97085.84;4916771;29;20076;-82
2021/03/25 00:43:52;;;;;;;10.82;7.20;;;;;;;5.32;60.11;97095.94;4916653;29;20086;-82
2021/03/25 00:46:19;;;;;;;10.10;7.28;;;;;;;5.32;60.00;97088.97;4916673;29;20499;-82
2021/03/25 00:48:46;;;;;;;10.57;6.68;;;;;;;5.31;59.87;97089.94;4916787;29;20547;-82
2021/03/25 00:51:13;;;;;;;9.32;7.40;;;;;;;5.31;60.10;97092.53;4919814;29;20055;-82
2021/03/25 00:53:41;;;;;;;10.30;6.90;;;;;;;5.29;60.05;97084.09;4920035;29;20052;-82
2021/03/25 00:56:08;;;;;;;9.18;6.93;;;;;;;5.30;59.81;97077.94;4917154;29;20052;-82
2021/03/25 00:58:35;;;;;;;8.32;6.38;;;;;;;5.29;59.91;97078.91;4917153;29;20142;-82
2021/03/25 01:01:05;;;;;;;10.68;6.80;;;;;;;5.31;59.91;97074.41;4917335;29;20055;-82
2021/03/25 01:03:32;;;;;;;9.23;6.25;;;;;;;5.33;59.76;97077.66;4916459;29;20515;-82
2021/03/25 01:05:59;;;;;;;9.30;6.70;;;;;;;5.35;59.79;97075.75;4916524;29;20053;-82
2021/03/25 01:08:26;;;;;;;8.23;6.68;;;;;;;5.36;59.47;97074.00;4916793;29;20088;-82
2021/03/25 01:11:07;;;;;;;8.55;6.35;;;;;;;5.36;59.62;97067.06;4916854;29;20093;-82
2021/03/25 01:13:37;;;;;;;8.35;6.43;;;;;;;5.39;59.29;97070.31;4916969;29;20535;-82
2021/03/25 01:16:06;;;;;;;8.57;6.15;;;;;;;5.39;59.50;97071.13;4916898;29;20055;-82
2021/03/25 01:18:33;;;;;;;9.98;6.63;;;;;;;5.36;59.28;97069.66;4927842;29;20071;-82
2021/03/25 01:21:01;;;;;;;8.32;6.22;;;;;;;5.35;59.68;97069.78;4939932;29;20063;-82
2021/03/25 01:23:28;;;;;;;10.30;6.72;;;;;;;5.34;59.23;97066.38;4940008;29;20116;-82
2021/03/25 01:25:55;;;;;;;10.85;6.95;;;;;;;5.37;59.37;97073.84;4940233;29;20036;-82
2021/03/25 01:28:23;;;;;;;11.60;6.82;;;;;;;5.39;59.25;97075.50;4942892;29;20036;-82
2021/03/25 01:30:50;;;;;;;11.45;7.32;;;;;;;5.40;59.41;97077.13;4942838;29;20055;-82
2021/03/25 01:33:19;;;;;;;12.48;9.00;;;;;;;5.40;59.10;97079.69;4925443;29;20132;-82
2021/03/25 01:35:48;;;;;;;16.80;10.20;;;;;;;5.36;59.44;97077.41;4926665;29;20056;-82
2021/03/25 01:38:19;;;;;;;15.50;9.13;;;;;;;5.29;59.57;97068.56;4940908;29;20036;-82
2021/03/25 01:40:49;;;;;;;15.48;9.77;;;;;;;5.26;59.51;97066.25;4943030;29;20060;-83
2021/03/25 01:43:25;;;;;;;13.50;9.40;;;;;;;5.24;59.66;97073.31;4930346;29;20055;-82
2021/03/25 01:46:11;;;;;;;14.27;9.63;;;;;;;5.22;59.96;97064.06;4921070;29;20103;-83
2021/03/25 01:48:40;;;;;;;15.05;10.25;;;;;;;5.20;59.51;97074.53;4921402;29;20052;-82
2021/03/25 01:51:18;;;;;;;16.83;8.88;;;;;;;5.16;59.65;97063.66;4920214;29;20112;-82
2021/03/25 01:54:13;;;;;;;19.05;10.45;;;;;;;5.12;59.65;97058.91;4919653;29;20080;-82
2021/03/25 01:59:32;;;;;;;11.70;6.90;;;;;;;5.15;60.16;97063.78;4942717;29;20052;-79
2021/03/25 02:02:08;;;;;;;11.18;7.15;;;;;;;5.11;60.08;97062.44;4944887;29;20119;-81
2021/03/25 02:04:52;;;;;;;9.63;6.68;;;;;;;5.09;60.31;97054.78;4944639;29;20467;-81
2021/03/25 02:07:22;;;;;;;;;;;;;;;5.08;59.93;97057.53;4944756;29;20057;-79
2021/03/25 02:09:56;;;;;;;12.00;8.38;;;;;;;5.03;60.13;97059.69;4945059;29;19930;-80
2021/03/25 02:12:34;;;;;;;13.32;8.85;;;;;;;5.03;59.98;97059.69;4944571;29;20048;-79
2021/03/25 02:15:08;;;;;;;9.73;7.72;;;;;;;5.01;60.02;97054.69;4944149;29;20058;-81
2021/03/25 02:17:41;;;;;;;14.65;8.80;;;;;;;5.03;60.57;97060.53;4944370;29;20062;-80
2021/03/25 02:20:48;;;;;;;10.77;7.70;;;;;;;5.03;59.98;97057.94;4944210;29;20051;-80
2021/03/25 02:23:44;;;;;;;11.32;7.32;;;;;;;4.98;59.93;97061.88;4943668;29;20054;-79
2021/03/25 02:26:15;;;;;;;9.20;7.22;;;;;;;4.89;59.91;97059.16;4944432;29;20079;-80
2021/03/25 02:29:00;;;;;;;14.35;7.43;;;;;;;4.83;60.28;97061.44;4944267;29;20062;-79
2021/03/25 02:31:31;;;;;;;11.75;7.63;;;;;;;4.78;59.95;97058.47;4944155;29;20060;-79
2021/03/25 02:34:04;;;;;;;10.23;7.22;;;;;;;4.72;60.04;97052.06;4943502;29;20082;-79
2021/03/25 02:36:38;;;;;;;9.60;7.03;;;;;;;4.64;60.56;97049.34;4943534;29;20499;-79
2021/03/25 02:39:10;;;;;;;14.25;7.15;;;;;;;4.56;60.60;97047.41;4942639;29;20048;-79
2021/03/25 02:41:41;;;;;;;9.03;7.13;;;;;;;4.53;60.80;97047.69;4941844;29;20049;-82
2021/03/25 02:44:10;;;;;;;12.00;7.25;;;;;;;4.45;61.17;97047.53;4942525;29;20779;-79
2021/03/25 02:46:41;;;;;;;12.02;7.72;;;;;;;4.39;61.22;97041.09;4941839;29;20059;-79
2021/03/25 02:49:13;;;;;;;10.45;6.95;;;;;;;4.34;61.89;97045.84;4942215;29;20110;-80
2021/03/25 02:51:46;;;;;;;10.43;6.72;;;;;;;4.30;61.87;97040.13;4942362;29;20054;-79
2021/03/25 02:54:12;;;;;;;9.63;6.38;;;;;;;4.30;61.60;97041.91;4942224;29;20058;-81
2021/03/25 02:56:43;;;;;;;10.43;7.28;;;;;;;4.26;61.76;97035.34;4942303;29;20051;-80
2021/03/25 02:59:15;;;;;;;9.85;7.00;;;;;;;4.24;61.78;97032.09;4941678;29;20051;-82
2021/03/25 03:01:48;;;;;;;11.15;7.32;;;;;;;4.22;62.26;97034.81;4942172;29;20054;-80
2021/03/25 03:04:20;;;;;;;9.50;7.03;;;;;;;4.20;62.11;97028.13;4941515;29;20048;-79
2021/03/25 03:06:51;;;;;;;10.48;6.90;;;;;;;4.18;62.35;97032.63;4941989;29;20099;-80
2021/03/25 03:09:21;;;;;;;13.70;8.52;;;;;;;4.16;62.60;97029.38;4941798;29;20050;-78
2021/03/25 03:11:51;;;;;;;11.50;7.70;;;;;;;4.13;62.57;97033.84;4940946;29;20048;-79
2021/03/25 03:14:28;;;;;;;11.55;7.10;;;;;;;4.11;62.84;97028.00;4941078;29;20051;-78
2021/03/25 03:17:03;;;;;;;11.43;7.00;;;;;;;4.09;62.67;97029.88;4941590;29;20535;-81
2021/03/25 03:19:33;;;;;;;8.45;6.68;;;;;;;4.08;62.75;97030.00;4942225;29;20055;-82
2021/03/25 03:22:03;;;;;;;11.32;7.25;;;;;;;4.08;62.79;97030.00;4943086;29;20054;-83
2021/03/25 03:24:31;;;;;;;11.07;7.13;;;;;;;4.08;62.78;97033.41;4941991;29;20054;-78
2021/03/25 03:27:01;;;;;;;11.60;6.90;;;;;;;4.08;62.83;97033.41;4942302;29;20057;-82
2021/03/25 03:29:31;;;;;;;11.48;7.45;;;;;;;4.08;62.77;97030.81;4942004;29;20062;-78
2021/03/25 03:32:10;;;;;;;11.52;6.50;;;;;;;4.09;63.19;97032.47;4941646;29;20483;-81
2021/03/25 03:34:41;;;;;;;10.50;6.65;;;;;;;4.09;63.07;97029.88;4941367;29;20059;-82
2021/03/25 03:37:13;;;;;;;11.40;7.40;;;;;;;4.11;62.78;97033.16;4941566;29;20057;-81
2021/03/25 03:39:42;;;;;;;11.80;7.35;;;;;;;4.12;62.75;97034.78;4941732;29;20426;-82
2021/03/25 03:42:13;;;;;;;11.70;7.90;;;;;;;4.15;63.03;97032.88;4942158;29;20047;-80
2021/03/25 03:44:43;;;;;;;13.02;7.75;;;;;;;4.17;62.87;97031.78;4941070;29;20060;-81
2021/03/25 03:47:13;;;;;;;11.77;7.63;;;;;;;4.20;62.84;97035.88;4941134;29;20051;-81
2021/03/25 03:49:45;;;;;;;11.73;7.40;;;;;;;4.23;62.97;97036.44;4941847;29;20044;-80
2021/03/25 03:52:15;;;;;;;14.90;7.68;;;;;;;4.25;62.99;97034.56;4941103;29;20056;-81
2021/03/25 03:54:43;;;;;;;13.32;7.50;;;;;;;4.25;62.49;97038.91;4941289;29;20549;-80
2021/03/25 03:57:19;;;;;;;12.75;7.93;;;;;;;4.25;62.70;97036.31;4941417;29;20063;-81
2021/03/25 03:59:51;;;;;;;11.15;7.70;;;;;;;4.22;62.66;97026.25;4940777;29;20083;-80
2021/03/25 04:02:27;;;;;;;11.73;7.55;;;;;;;4.21;62.74;97032.38;4941372;29;20052;-79
2021/03/25 04:05:03;;;;;;;11.02;7.43;;;;;;;4.17;62.58;97031.78;4940641;29;20131;-79
2021/03/25 04:07:34;;;;;;;17.50;8.70;;;;;;;4.11;62.37;97028.00;4941834;29;20052;-79
2021/03/25 04:10:09;;;;;;;12.13;8.38;;;;;;;4.07;62.99;97026.63;4942694;29;20051;-80
2021/03/25 04:12:39;;;;;;;12.13;7.70;;;;;;;4.03;62.68;97021.84;4941424;29;20050;-80
2021/03/25 04:15:14;;;;;;;15.18;8.50;;;;;;;4.01;63.06;97021.97;4941920;29;20055;-80
2021/03/25 04:17:45;;;;;;;14.02;8.00;;;;;;;3.98;63.07;97019.66;4941845;29;20055;-79
2021/03/25 04:20:18;;;;;;;15.63;8.65;;;;;;;3.94;63.33;97018.28;4940911;29;20058;-79
2021/03/25 04:22:49;;;;;;;13.20;7.80;;;;;;;3.94;63.08;97018.28;4940655;29;20411;-79
2021/03/25 04:25:24;;;;;;;12.80;7.28;;;;;;;3.97;63.49;97020.59;4941017;29;20503;-81
2021/03/25 04:27:58;;;;;;;13.57;8.63;;;;;;;3.99;63.23;97021.28;4940917;29;20049;-81
2021/03/25 04:30:29;;;;;;;14.68;9.35;;;;;;;4.02;63.22;97020.19;4940717;29;20055;-79
2021/03/25 04:32:57;;;;;;;11.05;8.18;;;;;;;4.02;62.88;97012.44;4941055;29;20067;-81
2021/03/25 04:35:24;;;;;;;14.98;7.70;;;;;;;4.03;63.16;97014.91;4941391;29;20071;-79
2021/03/25 04:37:53;;;;;;;14.27;7.75;;;;;;;4.05;63.29;97018.19;4940994;29;20052;-79
2021/03/25 04:40:23;;;;;;;16.58;7.78;;;;;;;4.08;63.55;97012.75;4941062;29;20055;-79
2021/03/25 04:42:50;;;;;;;12.75;8.20;;;;;;;4.09;62.97;97016.97;4941120;29;20048;-80
2021/03/25 04:45:25;;;;;;;12.02;7.25;;;;;;;4.09;63.30;97019.56;4941223;29;20074;-80
2021/03/25 04:47:55;;;;;;;11.25;7.25;;;;;;;4.11;63.35;97022.00;4941010;29;20063;-78
2021/03/25 04:50:25;;;;;;;14.90;7.93;;;;;;;4.11;63.07;97028.00;4940998;29;20087;-78
2021/03/25 04:53:01;;;;;;;13.88;7.35;;;;;;;4.12;62.97;97027.03;4941120;29;20130;-79
2021/03/25 04:55:32;;;;;;;11.02;7.30;;;;;;;4.11;62.16;97027.16;4941023;29;20549;-80
2021/03/25 04:58:01;;;;;;;10.38;7.75;;;;;;;4.09;62.96;97029.88;4940340;29;20056;-79
2021/03/25 05:00:31;;;;;;;11.85;8.32;;;;;;;4.06;63.43;97024.97;4940549;29;20058;-84
2021/03/25 05:03:01;;;;;;;13.32;7.68;;;;;;;4.02;62.77;97023.59;4944115;29;20051;-78
2021/03/25 05:05:31;;;;;;;16.25;8.50;;;;;;;3.98;62.91;97022.25;4944418;29;20051;-79
2021/03/25 05:07:59;;;;;;;15.63;8.88;;;;;;;3.96;63.00;97029.28;4943915;29;20047;-81
2021/03/25 05:10:34;;;;;;;12.60;8.00;;;;;;;3.95;63.04;97027.66;4944296;29;20055;-83
2021/03/25 05:13:00;;;;;;;12.45;8.27;;;;;;;3.90;62.54;97027.22;4943100;29;20512;-79
2021/03/25 05:15:29;;;;;;;14.02;9.32;;;;;;;3.88;62.75;97036.84;4942537;29;20054;-80
2021/03/25 05:18:06;;;;;;;12.18;8.70;;;;;;;3.89;63.00;97030.75;4942745;29;20252;-80
2021/03/25 05:20:41;;;;;;;14.05;8.50;;;;;;;3.91;62.79;97041.75;4943353;29;20055;-81
2021/03/25 05:23:16;;;;;;;13.60;7.93;;;;;;;3.90;62.86;97040.13;4943231;29;20048;-80
2021/03/25 05:25:48;;;;;;;11.88;7.07;;;;;;;3.89;62.85;97033.31;4943679;29;20051;-81
2021/03/25 05:28:20;;;;;;;13.80;8.43;;;;;;;3.91;63.56;97036.59;4943029;29;20056;-79
2021/03/25 05:30:50;;;;;;;20.75;8.80;;;;;;;3.92;62.96;97039.06;4943566;29;20083;-80
2021/03/25 05:33:22;;;;;;;21.85;8.13;;;;;;;3.92;62.99;97030.50;4943044;29;20073;-79
2021/03/25 05:35:54;;;;;;;14.13;8.13;;;;;;;3.91;63.05;97032.25;4944372;29;20134;-80
2021/03/25 05:38:22;;;;;;;16.83;8.48;;;;;;;3.91;63.08;97034.00;4943233;29;20529;-79
2021/03/25 05:40:52;;;;;;;17.85;8.25;;;;;;;3.94;62.95;97040.69;4943889;29;20055;-79
2021/03/25 05:43:48;;;;;;;16.23;7.72;;;;;;;3.95;63.61;97032.81;4943647;29;20054;-78
2021/03/25 05:46:24;;;;;;;12.20;7.65;;;;;;;3.98;63.07;97036.88;4942870;29;20051;-77
2021/03/25 05:49:07;;;;;;;10.35;7.45;;;;;;;3.98;63.43;97040.31;4942219;29;20052;-78
2021/03/25 05:51:41;;;;;;;11.73;6.97;;;;;;;4.01;63.18;97041.81;4941403;29;20078;-77
2021/03/25 05:54:22;;;;;;;10.02;6.63;;;;;;;3.99;63.31;97039.34;4941308;29;20056;-80
2021/03/25 05:57:15;;;;;;;11.70;7.63;;;;;;;3.98;63.38;97042.88;4941957;29;20134;-77
2021/03/25 05:59:49;;;;;;;12.35;7.57;;;;;;;4.01;63.34;97041.81;4942278;29;20051;-78
2021/03/25 06:02:22;;;;;;;11.13;6.82;;;;;;;4.05;63.58;97044.00;4941694;29;20459;-79
2021/03/25 06:04:51;;;;;;;17.80;8.98;;;;;;;4.10;63.38;97043.59;4941601;29;20056;-79
2021/03/25 06:07:42;;;;;;;16.25;8.45;;;;;;;4.12;63.51;97047.69;4941462;29;20077;-81
2021/03/25 06:10:20;;;;;;;16.20;8.07;;;;;;;4.13;63.50;97044.16;4941771;29;20333;-79
2021/03/25 06:13:04;;;;;;;13.95;8.75;;;;;;;4.13;63.60;97046.75;4941661;29;20052;-77
2021/03/25 06:15:57;;;;;;;25.13;9.55;;;;;;;4.17;63.57;97057.63;4942512;29;20426;-77
2021/03/25 06:18:44;;;;;;;23.55;9.65;;;;;;;4.21;63.00;97053.03;4941755;29;20530;-77
2021/03/25 06:21:19;;;;;;;29.98;9.30;;;;;;;4.25;63.42;97056.97;4942364;29;20047;-77
2021/03/25 06:24:02;;;;;;;31.88;9.40;;;;;;;4.26;63.46;97051.69;4942245;29;20055;-78
2021/03/25 06:26:40;;;;;;;18.90;9.55;;;;;;;4.26;63.37;97050.84;4942328;29;20048;-77
2021/03/25 06:29:11;;;;;;;17.77;8.40;;;;;;;4.26;63.77;97056.03;4941271;29;20044;-77
2021/03/25 06:31:48;;;;;;;18.80;9.82;;;;;;;4.29;63.58;97056.59;4942195;29;20553;-79
2021/03/25 06:34:23;;;;;;;21.25;10.25;;;;;;;4.34;63.51;97058.78;4941997;29;20052;-77
2021/03/25 06:36:58;;;;;;;17.35;9.25;;;;;;;4.39;63.50;97061.75;4942565;29;20062;-80
2021/03/25 06:39:49;;;;;;;18.63;9.43;;;;;;;4.44;63.71;97067.38;4942452;29;20075;-77
2021/03/25 06:42:25;;;;;;;17.48;8.48;;;;;;;4.48;63.41;97070.50;4937284;29;20055;-77
2021/03/25 06:45:17;;;;;;;19.90;9.38;;;;;;;4.56;63.25;97067.25;4942482;29;20048;-77
2021/03/25 06:47:50;;;;;;;18.02;9.52;;;;;;;4.62;63.27;97071.91;4943323;29;20409;-78
2021/03/25 06:50:20;;;;;;;16.67;9.40;;;;;;;4.70;63.49;97074.63;4943362;29;20072;-79
2021/03/25 06:52:46;;;;;;;16.75;8.55;;;;;;;4.77;63.21;97070.56;4942632;29;20059;-77
2021/03/25 06:55:18;;;;;;;24.42;11.25;;;;;;;4.84;63.53;97079.41;4943155;29;20047;-78
2021/03/25 06:57:53;;;;;;;18.55;10.18;;;;;;;4.91;63.64;97072.75;4943195;29;20138;-78
2021/03/25 07:00:23;;;;;;;19.33;10.95;;;;;;;5.00;63.36;97070.31;4943131;29;20062;-78
2021/03/25 07:02:50;;;;;;;21.60;10.60;;;;;;;5.09;63.18;97074.69;4942258;29;20523;-78
2021/03/25 07:05:22;;;;;;;21.90;10.85;;;;;;;5.18;63.66;97076.44;4943239;29;20075;-78
2021/03/25 07:07:56;;;;;;;23.08;9.98;;;;;;;5.28;63.60;97077.25;4942734;29;20062;-79
2021/03/25 07:10:24;;;;;;;19.20;8.85;;;;;;;5.40;63.35;97077.97;4942921;29;20051;-78
2021/03/25 07:12:52;;;;;;;21.75;9.68;;;;;;;5.51;62.67;97074.38;4942700;29;20052;-78
2021/03/25 07:15:41;;;;;;;28.50;10.18;;;;;;;5.65;63.00;97071.38;4943417;29;20059;-79
2021/03/25 07:18:24;;;;;;;25.20;10.05;;;;;;;5.77;62.58;97070.28;4943090;29;20078;-78
2021/03/25 07:21:21;;;;;;;20.67;9.80;;;;;;;5.91;62.61;97069.00;4944007;29;20058;-79
2021/03/25 07:23:48;;;;;;;22.17;10.38;;;;;;;6.05;62.23;97078.09;4941682;29;20455;-78
2021/03/25 07:26:22;;;;;;;24.02;10.73;;;;;;;6.18;62.18;97073.41;4942058;29;20048;-77
2021/03/25 07:29:04;;;;;;;22.10;10.35;;;;;;;6.31;62.20;97073.09;4942575;29;20430;-78
2021/03/25 07:31:36;;;;;;;20.33;9.30;;;;;;;6.46;61.42;97075.22;4942165;29;20589;-78
2021/03/25 07:34:03;;;;;;;19.63;10.38;;;;;;;6.56;61.00;97074.22;4942931;29;20142;-78
2021/03/25 07:36:33;;;;;;;17.25;9.45;;;;;;;6.68;60.96;97074.03;4942546;29;20052;-78
2021/03/25 07:39:04;;;;;;;15.70;7.65;;;;;;;6.79;61.30;97076.41;4942397;29;20067;-80
2021/03/25 07:41:34;;;;;;;18.30;9.05;;;;;;;6.93;61.67;97075.91;4942694;29;20052;-78
2021/03/25 07:44:04;;;;;;;19.13;8.65;;;;;;;7.09;61.20;97077.03;4942470;29;20048;-77
2021/03/25 07:46:35;;;;;;;23.38;10.18;;;;;;;7.26;61.09;97073.63;4940116;29;20079;-76
2021/03/25 07:49:08;;;;;;;35.10;11.73;;;;;;;7.40;60.54;97075.66;4941323;29;20455;-79
2021/03/25 07:51:41;;;;;;;;;;;;;;;7.57;60.18;97075.81;4943652;29;20066;-80
2021/03/25 07:54:10;;;;;;;20.38;9.27;;;;;;;7.71;60.13;97077.84;4942212;29;19923;-77
2021/03/25 07:57:03;;;;;;;20.42;9.40;;;;;;;7.88;59.99;97072.78;4942919;29;20062;-78
2021/03/25 07:59:37;;;;;;;19.75;9.43;;;;;;;8.03;59.75;97081.63;4940620;29;20138;-78
2021/03/25 08:02:18;;;;;;;22.80;10.57;;;;;;;8.16;58.70;97071.63;4941119;29;20090;-77
2021/03/25 08:04:45;;;;;;;17.75;10.43;;;;;;;8.28;58.88;97079.16;4943093;29;20514;-77
2021/03/25 08:07:11;;;;;;;17.63;9.85;;;;;;;8.41;58.94;97079.56;4943316;29;20055;-77
2021/03/25 08:09:49;;;;;;;23.02;12.63;;;;;;;8.53;57.70;97075.72;4944244;29;20533;-78
2021/03/25 08:12:23;;;;;;;23.58;11.57;;;;;;;8.69;58.00;97082.75;4943251;29;20052;-79
2021/03/25 08:14:51;;;;;;;22.83;12.38;;;;;;;8.84;58.50;97082.97;4943387;29;20073;-78
2021/03/25 08:17:29;;;;;;;23.35;13.57;;;;;;;8.99;56.61;97083.97;4943465;29;20055;-78
2021/03/25 08:20:02;;;;;;;23.00;12.10;;;;;;;9.15;56.39;97085.78;4941817;29;20087;-77
2021/03/25 08:22:53;;;;;;;16.75;11.00;;;;;;;9.33;56.03;97090.03;4944083;29;20117;-78
2021/03/25 08:25:37;;;;;;;21.23;11.98;;;;;;;9.54;56.08;97086.97;4943482;29;20058;-78
2021/03/25 08:28:19;;;;;;;18.75;11.23;;;;;;;9.76;54.63;97090.69;4943158;29;20056;-77
2021/03/25 08:30:53;;;;;;;19.38;11.60;;;;;;;9.95;54.55;97087.75;4942277;29;20069;-77
2021/03/25 08:33:32;;;;;;;18.42;10.82;;;;;;;10.16;53.98;97086.38;4941106;29;20047;-79
2021/03/25 08:36:04;;;;;;;19.52;11.15;;;;;;;10.37;53.66;97080.66;4945842;29;20075;-77
2021/03/25 08:39:14;;;;;;;18.63;11.10;;;;;;;10.60;53.39;97072.91;4946419;29;20052;-77
2021/03/25 08:41:46;;;;;;;18.70;10.82;;;;;;;10.83;52.73;97078.19;4950412;29;20052;-78
2021/03/25 08:44:25;;;;;;;20.33;10.18;;;;;;;11.07;52.23;97079.84;4950789;29;20066;-80
2021/03/25 08:46:56;;;;;;;19.85;9.70;;;;;;;11.32;52.10;97081.28;4950677;29;20058;-79
2021/03/25 08:49:31;;;;;;;17.02;9.27;;;;;;;11.59;50.59;97081.75;4950553;29;20082;-79
2021/03/25 08:52:02;;;;;;;10.40;7.18;;;;;;;11.87;49.60;97084.59;4948569;29;20510;-78
2021/03/25 08:54:34;;;;;;;12.02;6.68;;;;;;;12.17;48.03;97076.81;4948601;29;20051;-78
2021/03/25 08:57:04;;;;;;;12.80;5.93;;;;;;;12.53;47.45;97086.56;4949271;29;20054;-79
2021/03/25 08:59:37;;;;;;;7.85;5.53;;;;;;;12.98;46.08;97082.84;4951936;29;20052;-78
2021/03/25 09:02:11;;;;;;;9.23;5.85;;;;;;;13.54;45.20;97090.09;4952265;29;20055;-78
2021/03/25 09:04:47;;;;;;;7.75;5.05;;;;;;;14.16;43.85;97090.34;4949391;29;20055;-79
2021/03/25 09:07:14;;;;;;;10.60;5.90;;;;;;;14.74;43.27;97085.63;4947969;29;20048;-77
2021/03/25 09:09:45;;;;;;;11.35;5.20;;;;;;;15.25;40.95;97085.16;4948238;29;20060;-78
2021/03/25 09:12:14;;;;;;;11.48;5.95;;;;;;;15.78;39.52;97088.91;4949456;29;20051;-80
2021/03/25 09:14:42;;;;;;;10.20;5.97;;;;;;;16.26;38.26;97080.75;4947375;29;20058;-79
2021/03/25 09:17:13;;;;;;;9.60;5.70;;;;;;;16.66;37.05;97083.25;4948374;29;20115;-78
2021/03/25 09:19:43;;;;;;;26.45;8.13;;;;;;;16.93;35.39;97077.94;4948144;29;20055;-79
2021/03/25 09:22:35;;;;;;;38.42;8.38;;;;;;;17.22;35.22;97076.56;4947346;29;20052;-78
2021/03/25 09:25:31;;;;;;;15.60;6.30;;;;;;;17.56;34.36;97077.13;4948441;29;20052;-78
2021/03/25 09:28:00;;;;;;;13.70;6.40;;;;;;;17.94;33.89;97071.78;4940820;29;20605;-78
2021/03/25 09:30:35;;;;;;;12.20;6.13;;;;;;;18.32;33.32;97065.53;4948682;29;20052;-79
2021/03/25 09:33:45;;;;;;;9.57;5.28;;;;;;;18.74;33.24;97063.03;4946568;29;20135;-77
2021/03/25 09:36:51;;;;;;;8.45;4.75;;;;;;;19.08;32.43;97060.78;4909601;29;20051;-77
2021/03/25 09:39:27;;;;;;;8.48;4.95;;;;;;;19.38;31.46;97062.59;4945379;29;20055;-81
2021/03/25 09:41:55;;;;;;;9.32;4.63;;;;;;;19.59;30.56;97056.78;4946068;29;20052;-78
2021/03/25 09:44:38;;;;;;;10.02;5.28;;;;;;;19.77;30.88;97050.63;4944928;29;20525;-78
2021/03/25 09:47:36;;;;;;;8.20;4.82;;;;;;;20.04;30.81;97053.59;4943872;29;20059;-77
2021/03/25 09:50:17;;;;;;;8.38;4.50;;;;;;;20.20;29.25;97048.66;4945774;29;20063;-80
2021/03/25 09:52:48;;;;;;;5.75;4.53;;;;;;;20.20;29.06;97044.16;4943946;29;20055;-81
2021/03/25 09:55:18;;;;;;;6.15;4.30;;;;;;;20.32;29.66;97044.16;4943879;29;20043;-79
2021/03/25 09:57:51;;;;;;;7.13;4.72;;;;;;;20.58;30.16;97046.31;4943804;29;20119;-80
2021/03/25 10:00:50;;;;;;;9.20;4.97;;;;;;;20.90;27.95;97043.22;4944338;29;20494;-80
2021/03/25 10:03:18;;;;;;;9.95;4.63;;;;;;;21.14;28.21;97043.94;4943049;29;20074;-79
2021/03/25 10:05:46;;;;;;;8.75;4.78;;;;;;;21.35;27.39;97034.44;4941229;29;20510;-77
2021/03/25 10:08:51;;;;;;;7.43;5.50;;;;;;;21.58;26.47;97043.34;4940149;29;20051;-78
2021/03/25 10:11:37;;;;;;;8.65;5.40;;;;;;;21.74;26.38;97039.88;4940883;29;20059;-79
2021/03/25 10:14:45;;;;;;;6.18;4.43;;;;;;;21.88;26.73;97032.38;4944089;29;20044;-79
2021/03/25 10:17:44;;;;;;;4.63;3.55;;;;;;;21.98;25.73;97040.50;4944329;29;20063;-79
2021/03/25 10:20:31;;;;;;;5.78;4.30;;;;;;;22.00;25.44;97029.66;4946362;29;20058;-78
2021/03/25 10:23:01;;;;;;;7.60;4.32;;;;;;;21.93;26.16;97029.81;4945870;29;20056;-80
2021/03/25 10:25:30;;;;;;;5.25;4.00;;;;;;;21.95;25.37;97021.59;4946419;29;20058;-80
2021/03/25 10:28:01;;;;;;;6.22;4.03;;;;;;;21.98;25.80;97026.44;4947117;29;20055;-80
2021/03/25 10:30:33;;;;;;;6.35;4.45;;;;;;;22.07;24.20;97022.31;4946074;29;20056;-79
2021/03/25 10:33:04;;;;;;;4.95;3.78;;;;;;;22.17;24.55;97022.44;4944868;29;20055;-79
2021/03/25 10:35:35;;;;;;;5.57;3.80;;;;;;;22.30;23.91;97012.53;4943680;29;20048;-78
2021/03/25 10:38:08;;;;;;;4.50;3.20;;;;;;;22.38;23.93;97012.09;4943578;29;20052;-79
2021/03/25 10:40:38;;;;;;;4.72;3.22;;;;;;;22.49;23.48;97013.03;4944426;29;20066;-78
2021/03/25 10:43:07;;;;;;;5.20;3.67;;;;;;;22.51;23.10;97009.06;4941986;29;20240;-79
2021/03/25 10:45:46;;;;;;;4.82;2.58;;;;;;;22.62;22.84;97000.16;4941802;29;20048;-78
2021/03/25 10:48:20;;;;;;;4.15;2.97;;;;;;;22.77;22.12;97001.38;4940144;29;20052;-78
2021/03/25 10:50:51;;;;;;;5.22;3.22;;;;;;;22.86;22.39;96996.44;4940342;29;20078;-78
2021/03/25 10:53:22;;;;;;;4.80;3.17;;;;;;;22.92;21.94;96993.56;4939331;29;20043;-77
2021/03/25 10:55:52;;;;;;;3.88;2.90;;;;;;;22.99;21.53;96991.50;4939892;29;20083;-79
2021/03/25 10:58:24;;;;;;;9.07;3.40;;;;;;;23.03;22.18;96991.84;4940498;29;20055;-78
2021/03/25 11:01:01;;;;;;;5.22;2.85;;;;;;;23.12;22.69;96992.19;4941425;29;20054;-81
2021/03/25 11:03:32;;;;;;;4.78;3.20;;;;;;;23.18;22.20;96988.53;4940835;29;20066;-79
2021/03/25 11:06:00;;;;;;;5.57;2.80;;;;;;;23.22;22.34;96989.59;4940262;29;20047;-78
2021/03/25 11:08:38;;;;;;;4.40;2.63;;;;;;;23.26;21.88;96995.22;4940326;29;20066;-78
2021/03/25 11:11:11;;;;;;;9.25;2.88;;;;;;;23.27;21.17;96986.19;4939828;29;20059;-77
2021/03/25 11:13:40;;;;;;;22.35;4.80;;;;;;;23.29;21.50;96979.56;4939350;29;20054;-78
2021/03/25 11:16:18;;;;;;;6.03;2.65;;;;;;;23.33;20.46;96988.66;4938308;29;20059;-78
2021/03/25 11:18:47;;;;;;;3.95;2.28;;;;;;;23.26;20.31;96985.38;4938620;29;20158;-80
2021/03/25 11:21:20;;;;;;;5.63;2.65;;;;;;;23.08;19.86;96977.78;4939001;29;20234;-79
2021/03/25 11:23:47;;;;;;;4.90;2.60;;;;;;;22.88;20.27;96976.50;4939054;29;20407;-78
2021/03/25 11:26:17;;;;;;;3.22;2.20;;;;;;;22.81;20.65;96975.91;4938919;29;20054;-78
2021/03/25 11:28:44;;;;;;;4.05;2.15;;;;;;;22.75;20.42;96972.38;4938974;29;20048;-79
2021/03/25 11:31:23;;;;;;;2.85;2.38;;;;;;;22.70;19.91;96969.66;4939247;29;20060;-78
2021/03/25 11:33:51;;;;;;;5.50;2.85;;;;;;;22.67;19.86;96964.84;4938974;29;20051;-78
2021/03/25 11:36:43;;;;;;;4.95;2.70;;;;;;;22.69;20.64;96964.59;4940236;29;20051;-79
2021/03/25 11:39:24;;;;;;;4.03;2.28;;;;;;;22.78;20.77;96963.91;4939887;29;20055;-79
2021/03/25 11:41:53;;;;;;;3.40;2.55;;;;;;;22.83;20.83;96963.16;4939457;29;20426;-78
2021/03/25 11:44:46;;;;;;;3.05;2.15;;;;;;;22.86;20.12;96965.31;4937543;29;20048;-78
2021/03/25 11:47:33;;;;;;;6.22;2.88;;;;;;;22.77;19.13;96956.19;4937691;29;20485;-78
2021/03/25 11:50:01;;;;;;;2.55;1.80;;;;;;;22.61;18.17;96953.38;4939665;29;20067;-78
2021/03/25 11:52:38;;;;;;;2.70;2.10;;;;;;;22.45;18.25;96956.88;4939954;29;20058;-79
2021/03/25 11:55:06;;;;;;;3.53;1.80;;;;;;;22.37;19.84;96954.69;4939506;29;20051;-78
2021/03/25 11:57:35;;;;;;;5.55;2.60;;;;;;;22.31;18.56;96963.66;4939560;29;20054;-80
2021/03/25 12:00:10;;;;;;;3.05;1.88;;;;;;;22.15;18.55;96951.97;4939495;29;20048;-80
2021/03/25 12:02:40;;;;;;;2.35;1.00;;;;;;;22.09;17.44;96947.69;4939097;29;20048;-79
2021/03/25 12:05:39;;;;;;;1.40;0.98;;;;;;;21.93;17.43;96949.31;4938946;29;20067;-78
2021/03/25 12:08:22;;;;;;;2.95;1.42;;;;;;;21.69;17.17;96954.88;4939901;29;20515;-78
2021/03/25 12:10:58;;;;;;;1.98;1.38;;;;;;;21.64;18.33;96952.13;4939835;29;20487;-78